Aeroporto :
LOGIN :

Iscrizione | Disclaimer

   EN    FR    IT 

 










Sommario :    VFR   VFR Marginale   IFR   IFR Intensivo   IFR Molto Intensivo
Visibilità : 
Base nubi : 
>= 8 km
>= 3000ft
5 / 8 km
1000 / 3000 ft
1500m / 5 km
500 / 1000 ft
800 / 1500m
200 / 500 ft
< 800m
< 200 ft
Simboli :   Temporali  Nebbia  Neve Forte  Precipitazioni Forti  Vento > 20 kt
SIGMETs :   Varie  Temporali  Ghiacco  Turbolenza  Onda orograficha  Ceneri Vulcaniche







- Altitudine del aeroporto : 55 ft
- Codice IATA : DSA
- Carte del aeroporto


EGCN - Robin Hood Doncaster Sheffield

ULTIMO METAR :
  • 190050Z 02006KT 9999 BKN030 OVC035 06/06 Q1030

METARs OBSOLETI :
  • 190020Z 36005KT 9999 SCT022 OVC031 06/06 Q1030
  • 182350Z 34005KT 9999 OVC032 05/05 Q1030
  • 182320Z 34005KT 9999 SCT026 OVC032 05/05 Q1030
  • 182250Z 35005KT 9999 BKN025 03/03 Q1031
  • 182220Z 35006KT CAVOK 02/02 Q1031

TAF TAF EGCN
Valido dal 19 a 00 ore il 20 a 00 ore UTC


182302Z 1900/1924 36005KT 9999 SCT025
BECMG 1900/1903 07010KT
PROB30
TEMPO 1900/1903 4000 -DZ BR BKN009
TEMPO 1909/1912 7000 SHRA
TEMPO 1912/1924 08015G25KT 7000 SHRA
PROB30
TEMPO 1921/1924 4000 +SHRA BKN014
Nessun NOTAM noto per questo aeroporto.



MetMap, La meteo Aeronautica in un colpo d'occhio ! - Copyright ORBIFLY Dicembre 2007 - Disclaimer

ORBIFLY MET'MAP TEAM :

Programmazione e sviluppo : Alexandra Zaïnal
Concezione e sviluppo : Baudouin d'Aumeries
Co-Programmazione e sviluppo : Marc-Olivier Méhu
Supporto tecnico e logistico : Manuel Goepfert
Aiuto per la traduzione : Arnaldo La Scala

Contatto : metmap@orbifly.com




FONTI E CREDITI :

   NOAA